Observation data for Canadian on 02/15/2017      Previous  Date  Next       Current Mesonet Observations  Soil Data  Daily Summary Page  Observations in Plain Language
KCA1 151704Z 30007KT 08/M05 A3021 RMK A01 T00841046  RH  039%=      5-min Rain = 0
KCA1 151705Z 31008KT 08/M05 A3021 RMK A01 T00831047  RH  039%=      5-min Rain = 0
KCA1 151706Z 32007KT 08/M05 A3021 RMK A01 T00821048  RH  040%=      5-min Rain = 0
KCA1 151707Z 32007KT 08/M05 A3021 RMK A01 T00801048  RH  040%=      5-min Rain = 0
KCA1 151708Z 30008KT 08/M04 A3021 RMK A01 T00801044  RH  041%=      5-min Rain = 0
KCA1 151709Z 32007KT 08/M04 A3021 RMK A01 T00821041  RH  042%=      5-min Rain = 0
KCA1 151710Z 31004KT 08/M04 A3021 RMK A01 T00831042  RH  041%=      5-min Rain = 0
KCA1 151711Z 30002KT 08/M05 A3021 RMK A01 T00821047  RH  040%=      5-min Rain = 0
KCA1 151712Z 26002KT 08/M05 A3021 RMK A01 T00801050  RH  039%=      5-min Rain = 0
KCA1 151713Z 27005KT 08/M05 A3021 RMK A01 T00801045  RH  041%=      5-min Rain = 0
KCA1 151714Z 29004KT 08/M05 A3021 RMK A01 T00821045  RH  040%=      5-min Rain = 0
KCA1 151715Z 29005KT 08/M04 A3021 RMK A01 T00831042  RH  041%=      5-min Rain = 0
KCA1 151716Z 30008KT 09/M04 A3021 RMK A01 T00851041  RH  041%=      5-min Rain = 0
KCA1 151717Z 29008KT 09/M04 A3021 RMK A01 T00861042  RH  040%=      5-min Rain = 0
KCA1 151718Z 28007KT 09/M04 A3021 RMK A01 T00871042  RH  040%=      5-min Rain = 0
KCA1 151719Z 29006KT 09/M04 A3021 RMK A01 T00881041  RH  040%=      5-min Rain = 0
KCA1 151720Z 28007KT 09/M04 A3021 RMK A01 T00891039  RH  040%=      5-min Rain = 0
KCA1 151721Z 27007KT 09/M04 A3021 RMK A01 T00891040  RH  040%=      5-min Rain = 0
KCA1 151722Z 30005KT 09/M04 A3021 RMK A01 T00891040  RH  040%=      5-min Rain = 0
KCA1 151723Z 30004KT 09/M04 A3021 RMK A01 T00891043  RH  039%=      5-min Rain = 0
KCA1 151724Z 34004KT 09/M04 A3021 RMK A01 T00881043  RH  039%=      5-min Rain = 0
KCA1 151725Z 30006KT 09/M04 A3021 RMK A01 T00881041  RH  040%=      5-min Rain = 0
KCA1 151726Z 29004KT 09/M04 A3021 RMK A01 T00891039  RH  040%=      5-min Rain = 0
KCA1 151727Z 30006KT 09/M04 A3021 RMK A01 T00891042  RH  039%=      5-min Rain = 0
KCA1 151728Z 30006KT 09/M04 A3021 RMK A01 T00891044  RH  039%=      5-min Rain = 0
KCA1 151729Z 31004KT 09/M04 A3021 RMK A01 T00891041  RH  039%=      5-min Rain = 0
KCA1 151730Z 33010KT 09/M04 A3021 RMK A01 T00921038  RH  040%=      5-min Rain = 0
KCA1 151731Z 32006KT 09/M04 A3021 RMK A01 T00931037  RH  040%=      5-min Rain = 0
KCA1 151732Z 30005KT 10/M04 A3021 RMK A01 T00951036  RH  039%=      5-min Rain = 0
KCA1 151733Z 30005KT 10/M04 A3021 RMK A01 T00951044  RH  037%=      5-min Rain = 0
KCA1 151734Z 28005KT 09/M04 A3021 RMK A01 T00941043  RH  038%=      5-min Rain = 0
KCA1 151735Z 31004KT 09/M04 A3021 RMK A01 T00941043  RH  038%=      5-min Rain = 0
KCA1 151736Z 32006KT 09/M04 A3021 RMK A01 T00941043  RH  038%=      5-min Rain = 0
KCA1 151737Z 33007KT 09/M05 A3021 RMK A01 T00941046  RH  037%=      5-min Rain = 0
KCA1 151738Z 32007KT 09/M05 A3021 RMK A01 T00931046  RH  037%=      5-min Rain = 0
KCA1 151739Z 33007KT 09/M04 A3021 RMK A01 T00921040  RH  039%=      5-min Rain = 0
KCA1 151740Z 33006KT 09/M04 A3021 RMK A01 T00941041  RH  038%=      5-min Rain = 0
KCA1 151741Z 34007KT 09/M04 A302 RMK A01 T00941041  RH  038%=      5-min Rain = 0
KCA1 151742Z 36004KT 10/M04 A302 RMK A01 T00951043  RH  038%=      5-min Rain = 0
KCA1 151743Z 00005KT 09/M05 A302 RMK A01 T00941048  RH  036%=      5-min Rain = 0
KCA1 151744Z 33007KT 09/M05 A302 RMK A01 T00921048  RH  037%=      5-min Rain = 0
KCA1 151745Z 33007KT 09/M05 A302 RMK A01 T00921045  RH  038%=      5-min Rain = 0
KCA1 151746Z 32006KT 09/M05 A302 RMK A01 T00911049  RH  037%=      5-min Rain = 0
KCA1 151747Z 33005KT 09/M05 A302 RMK A01 T00911048  RH  037%=      5-min Rain = 0
KCA1 151748Z 33004KT 09/M05 A302 RMK A01 T00921046  RH  038%=      5-min Rain = 0
KCA1 151749Z 31006KT 09/M05 A302 RMK A01 T00941047  RH  037%=      5-min Rain = 0
KCA1 151750Z 32005KT 09/M05 A302 RMK A01 T00941051  RH  036%=      5-min Rain = 0
KCA1 151751Z 33006KT 09/M05 A302 RMK A01 T00941045  RH  037%=      5-min Rain = 0
KCA1 151752Z 34006KT 10/M04 A302 RMK A01 T00961039  RH  038%=      5-min Rain = 0
KCA1 151753Z 34007KT 10/M04 A302 RMK A01 T00991038  RH  038%=      5-min Rain = 0
KCA1 151754Z 34007KT 10/M05 A302 RMK A01 T00981045  RH  036%=      5-min Rain = 0
KCA1 151755Z 34006KT 10/M05 A302 RMK A01 T00951048  RH  036%=      5-min Rain = 0
KCA1 151756Z 35004KT 09/M05 A302 RMK A01 T00931049  RH  036%=      5-min Rain = 0
KCA1 151757Z 35006KT 09/M05 A302 RMK A01 T00931048  RH  036%=      5-min Rain = 0
KCA1 151758Z 35005KT 09/M05 A302 RMK A01 T00931048  RH  037%=      5-min Rain = 0
KCA1 151759Z 35006KT 09/M05 A302 RMK A01 T00931048  RH  036%=      5-min Rain = 0
KCA1 151800Z 33005KT 09/M05 A302 RMK A01 T00941047  RH  037%=      5-min Rain = 0
KCA1 151801Z 34004KT 09/M05 A302 RMK A01 T00931047  RH  037%=      5-min Rain = 0
KCA1 151802Z 35003KT 09/M05 A302 RMK A01 T00941046  RH  037%=      5-min Rain = 0
KCA1 151803Z 30005KT 10/M04 A302 RMK A01 T00951042  RH  038%=      5-min Rain = 0
KCA1 151804Z 30007KT 10/M04 A302 RMK A01 T00991041  RH  037%=      5-min Rain = 0
KCA1 151805Z 29006KT 10/M05 A302 RMK A01 T00991047  RH  035%=      5-min Rain = 0
KCA1 151806Z 28005KT 10/M05 A302 RMK A01 T00971045  RH  036%=      5-min Rain = 0
KCA1 151807Z 28005KT 10/M04 A302 RMK A01 T00981043  RH  037%=      5-min Rain = 0
KCA1 151808Z 28007KT 10/M04 A302 RMK A01 T01011039  RH  037%=      5-min Rain = 0
KCA1 151809Z 27005KT 10/M04 A302 RMK A01 T01031041  RH  036%=      5-min Rain = 0
KCA1 151810Z 28004KT 10/M04 A302 RMK A01 T01041041  RH  036%=      5-min Rain = 0
KCA1 151811Z 30007KT 10/M04 A302 RMK A01 T01041041  RH  036%=      5-min Rain = 0
KCA1 151812Z 31004KT 10/M05 A302 RMK A01 T01021045  RH  035%=      5-min Rain = 0
KCA1 151813Z 26004KT 10/M05 A3019 RMK A01 T01001045  RH  036%=      5-min Rain = 0
KCA1 151814Z 26003KT 10/M05 A3019 RMK A01 T01001048  RH  035%=      5-min Rain = 0
KCA1 151815Z 26003KT 10/M05 A3019 RMK A01 T00991049  RH  035%=      5-min Rain = 0
KCA1 151816Z 27004KT 10/M04 A3019 RMK A01 T01001043  RH  036%=      5-min Rain = 0
KCA1 151817Z 26004KT 10/M04 A3019 RMK A01 T01041039  RH  036%=      5-min Rain = 0
KCA1 151818Z 28007KT 10/M05 A3019 RMK A01 T01041045  RH  035%=      5-min Rain = 0
KCA1 151819Z 28008KT 10/M05 A3019 RMK A01 T01031045  RH  035%=      5-min Rain = 0
KCA1 151820Z 27008KT 10/M05 A3019 RMK A01 T01021045  RH  035%=      5-min Rain = 0
KCA1 151821Z 28006KT 10/M04 A3019 RMK A01 T01021041  RH  036%=      5-min Rain = 0
KCA1 151822Z 27004KT 11/M04 A3019 RMK A01 T01051042  RH  035%=      5-min Rain = 0
KCA1 151823Z 23005KT 10/M04 A3019 RMK A01 T01041044  RH  035%=      5-min Rain = 0
KCA1 151824Z 24005KT 11/M04 A3019 RMK A01 T01051042  RH  035%=      5-min Rain = 0
KCA1 151825Z 25009KT 11/M04 A3018 RMK A01 T01071040  RH  035%=      5-min Rain = 0
KCA1 151826Z 27008KT 11/M04 A3018 RMK A01 T01071042  RH  035%=      5-min Rain = 0
KCA1 151827Z 26005KT 11/M04 A3018 RMK A01 T01061043  RH  035%=      5-min Rain = 0
KCA1 151828Z 28007KT 11/M04 A3018 RMK A01 T01051041  RH  035%=      5-min Rain = 0
KCA1 151829Z 28007KT 11/M05 A3018 RMK A01 T01061045  RH  034%=      5-min Rain = 0
KCA1 151830Z 30005KT 10/M05 A3018 RMK A01 T01041050  RH  033%=      5-min Rain = 0
KCA1 151831Z 34002KT 10/M05 A3018 RMK A01 T01021054  RH  033%=      5-min Rain = 0
KCA1 151832Z 34002KT 10/M05 A3018 RMK A01 T01001051  RH  034%=      5-min Rain = 0
KCA1 151833Z 30003KT 10/M05 A3018 RMK A01 T01001051  RH  034%=      5-min Rain = 0
KCA1 151834Z 28005KT 10/M05 A3018 RMK A01 T01021049  RH  034%=      5-min Rain = 0
KCA1 151835Z 31006KT 11/M04 A3018 RMK A01 T01071040  RH  035%=      5-min Rain = 0
KCA1 151836Z 31002KT 11/M04 A3018 RMK A01 T01101041  RH  035%=      5-min Rain = 0
KCA1 151837Z 31007KT 11/M04 A3018 RMK A01 T01111042  RH  034%=      5-min Rain = 0
KCA1 151838Z 32007KT 11/M05 A3018 RMK A01 T01091046  RH  033%=      5-min Rain = 0
KCA1 151839Z 33004KT 11/M05 A3018 RMK A01 T01071048  RH  033%=      5-min Rain = 0
KCA1 151840Z 30003KT 10/M05 A3018 RMK A01 T01031050  RH  034%=      5-min Rain = 0
KCA1 151841Z 24001KT 10/M05 A3018 RMK A01 T01031048  RH  034%=      5-min Rain = 0
KCA1 151842Z 06000KT 10/M05 A3018 RMK A01 T01041049  RH  034%=      5-min Rain = 0
KCA1 151843Z 30001KT 11/M05 A3018 RMK A01 T01051052  RH  033%=      5-min Rain = 0
KCA1 151844Z 30004G9KT 11/M05 A3018 RMK A01 T01061049  RH  033%=      5-min Rain = 0
KCA1 151845Z 32004KT 11/M05 A3018 RMK A01 T01071048  RH  033%=      5-min Rain = 0
KCA1 151846Z 32003KT 11/M05 A3018 RMK A01 T01071051  RH  033%=      5-min Rain = 0
KCA1 151847Z 28006KT 11/M05 A3018 RMK A01 T01071046  RH  034%=      5-min Rain = 0
KCA1 151848Z 30006KT 11/M05 A3018 RMK A01 T01081050  RH  032%=      5-min Rain = 0
KCA1 151849Z 29006KT 11/M05 A3018 RMK A01 T01101047  RH  033%=      5-min Rain = 0
KCA1 151850Z 32006KT 11/M05 A3017 RMK A01 T01101051  RH  032%=      5-min Rain = 0
KCA1 151851Z 34007KT 11/M05 A3017 RMK A01 T01091047  RH  033%=      5-min Rain = 0
KCA1 151852Z 33008KT 11/M04 A3017 RMK A01 T01101043  RH  034%=      5-min Rain = 0
KCA1 151853Z 31008KT 11/M05 A3017 RMK A01 T01111045  RH  033%=      5-min Rain = 0
KCA1 151854Z 32005KT 11/M05 A3017 RMK A01 T01111045  RH  033%=      5-min Rain = 0
KCA1 151855Z 33005KT 11/M05 A3017 RMK A01 T01101050  RH  032%=      5-min Rain = 0
KCA1 151856Z 33003KT 11/M05 A3017 RMK A01 T01081050  RH  033%=      5-min Rain = 0
KCA1 151857Z 31004G9KT 11/M05 A3017 RMK A01 T01081045  RH  034%=      5-min Rain = 0
KCA1 151858Z 29009KT 11/M05 A3017 RMK A01 T01111045  RH  033%=      5-min Rain = 0
KCA1 151859Z 29008KT 12/M05 A3017 RMK A01 T01151047  RH  032%=      5-min Rain = 0
KCA1 151900Z 29005KT 12/M05 A3017 RMK A01 T01151051  RH  031%=      5-min Rain = 0
KCA1 151901Z 29007KT 12/M05 A3017 RMK A01 T01151045  RH  032%=      5-min Rain = 0
KCA1 151902Z 29006KT 12/M05 A3017 RMK A01 T01171047  RH  031%=      5-min Rain = 0
KCA1 151903Z 31005KT 12/M05 A3017 RMK A01 T01161053  RH  030%=      5-min Rain = 0
KCA1 151904Z 31006KT 11/M06 A3017 RMK A01 T01121055  RH  031%=      5-min Rain = 0
KCA1 151905Z 33006KT 11/M05 A3017 RMK A01 T01101053  RH  032%=      5-min Rain = 0
KCA1 151906Z 33004KT 11/M05 A3017 RMK A01 T01091049  RH  032%=      5-min Rain = 0
KCA1 151907Z 35003KT 11/M05 A3017 RMK A01 T01111048  RH  033%=      5-min Rain = 0
KCA1 151908Z 01002KT 11/M05 A3017 RMK A01 T01111052  RH  031%=      5-min Rain = 0
KCA1 151909Z 02002KT 11/M04 A3017 RMK A01 T01111043  RH  034%=      5-min Rain = 0
KCA1 151910Z 36001KT 11/M05 A3017 RMK A01 T01121049  RH  032%=      5-min Rain = 0
KCA1 151911Z 25001KT 11/M05 A3017 RMK A01 T01121054  RH  031%=      5-min Rain = 0
KCA1 151912Z 26004KT 11/M05 A3017 RMK A01 T01121049  RH  032%=      5-min Rain = 0
KCA1 151913Z 30005KT 11/M05 A3016 RMK A01 T01141050  RH  031%=      5-min Rain = 0
KCA1 151914Z 30004KT 11/M06 A3016 RMK A01 T01141056  RH  030%=      5-min Rain = 0
KCA1 151915Z 33006KT 12/M05 A3016 RMK A01 T01151048  RH  032%=      5-min Rain = 0
KCA1 151916Z 30008KT 12/M04 A3016 RMK A01 T01171043  RH  032%=      5-min Rain = 0
KCA1 151917Z 28010KT 12/M04 A3016 RMK A01 T01201039  RH  033%=      5-min Rain = 0
KCA1 151918Z 28007KT 12/M04 A3016 RMK A01 T01201043  RH  032%=      5-min Rain = 0
KCA1 151919Z 29006KT 12/M05 A3016 RMK A01 T01181046  RH  031%=      5-min Rain = 0
KCA1 151920Z 29006KT 12/M04 A3016 RMK A01 T01181040  RH  033%=      5-min Rain = 0
KCA1 151921Z 27006KT 12/M05 A3016 RMK A01 T01191047  RH  031%=      5-min Rain = 0
KCA1 151922Z 28006KT 12/M05 A3016 RMK A01 T01171047  RH  031%=      5-min Rain = 0
KCA1 151923Z 27005KT 12/M05 A3016 RMK A01 T01161048  RH  031%=      5-min Rain = 0
KCA1 151924Z 31003KT 12/M05 A3016 RMK A01 T01161045  RH  032%=      5-min Rain = 0
KCA1 151925Z 28003KT 12/M04 A3016 RMK A01 T01161043  RH  032%=      5-min Rain = 0
KCA1 151926Z 29004KT 12/M05 A3016 RMK A01 T01171045  RH  032%=      5-min Rain = 0
KCA1 151927Z 28003KT 12/M04 A3016 RMK A01 T01181042  RH  032%=      5-min Rain = 0
KCA1 151928Z 27003KT 12/M04 A3016 RMK A01 T01201038  RH  033%=      5-min Rain = 0
KCA1 151929Z 24003KT 12/M04 A3016 RMK A01 T01221039  RH  032%=      5-min Rain = 0
KCA1 151930Z 23004KT 12/M05 A3016 RMK A01 T01231045  RH  031%=      5-min Rain = 0
KCA1 151931Z 24005KT 12/M04 A3015 RMK A01 T01211044  RH  031%=      5-min Rain = 0
KCA1 151932Z 25007KT 12/M04 A3015 RMK A01 T01211042  RH  032%=      5-min Rain = 0
KCA1 151933Z 25009KT 12/M04 A3015 RMK A01 T01221043  RH  031%=      5-min Rain = 0
KCA1 151934Z 25007KT 12/M05 A3015 RMK A01 T01201047  RH  031%=      5-min Rain = 0
KCA1 151935Z 22004KT 12/M05 A3015 RMK A01 T01171050  RH  031%=      5-min Rain = 0
KCA1 151936Z 21003KT 12/M05 A3015 RMK A01 T01161051  RH  031%=      5-min Rain = 0
KCA1 151937Z 22006KT 12/M05 A3015 RMK A01 T01171045  RH  032%=      5-min Rain = 0
KCA1 151938Z 22006KT 12/M05 A3015 RMK A01 T01191045  RH  032%=      5-min Rain = 0
KCA1 151939Z 19005KT 12/M05 A3015 RMK A01 T01201047  RH  031%=      5-min Rain = 0
KCA1 151940Z 22005KT 12/M05 A3015 RMK A01 T01201045  RH  031%=      5-min Rain = 0
KCA1 151941Z 24007KT 12/M04 A3015 RMK A01 T01211044  RH  031%=      5-min Rain = 0
KCA1 151942Z 28007KT 12/M04 A3015 RMK A01 T01231040  RH  032%=      5-min Rain = 0
KCA1 151943Z 27006KT 13/M04 A3015 RMK A01 T01261039  RH  032%=      5-min Rain = 0
KCA1 151944Z 29005KT 13/M04 A3015 RMK A01 T01261039  RH  031%=      5-min Rain = 0
KCA1 151945Z 33004KT 12/M05 A3015 RMK A01 T01241047  RH  030%=      5-min Rain = 0
KCA1 151946Z 29003KT 12/M04 A3014 RMK A01 T01211043  RH  031%=      5-min Rain = 0
KCA1 151947Z 24005KT 12/M04 A3014 RMK A01 T01221042  RH  032%=      5-min Rain = 0
KCA1 151948Z 23007KT 12/M04 A3014 RMK A01 T01231042  RH  031%=      5-min Rain = 0
KCA1 151949Z 24008KT 12/M04 A3014 RMK A01 T01221040  RH  032%=      5-min Rain = 0
KCA1 151950Z 23008KT 12/M04 A3014 RMK A01 T01221037  RH  033%=      5-min Rain = 0
KCA1 151951Z 22008KT 12/M04 A3014 RMK A01 T01221035  RH  033%=      5-min Rain = 0
KCA1 151952Z 20007KT 12/M04 A3014 RMK A01 T01241036  RH  032%=      5-min Rain = 0
KCA1 151953Z 24009KT 12/M04 A3014 RMK A01 T01231039  RH  032%=      5-min Rain = 0
KCA1 151954Z 28005KT 13/M03 A3014 RMK A01 T01251034  RH  033%=      5-min Rain = 0
KCA1 151955Z 29006KT 13/M03 A3014 RMK A01 T01291033  RH  032%=      5-min Rain = 0
KCA1 151956Z 28005KT 13/M04 A3014 RMK A01 T01271040  RH  031%=      5-min Rain = 0
KCA1 151957Z 26005KT 13/M04 A3014 RMK A01 T01271037  RH  032%=      5-min Rain = 0
KCA1 151958Z 31003KT 13/M05 A3014 RMK A01 T01251046  RH  030%=      5-min Rain = 0
KCA1 151959Z 24004KT 12/M04 A3014 RMK A01 T01211044  RH  031%=      5-min Rain = 0
KCA1 152000Z 24007KT 12/M04 A3014 RMK A01 T01201043  RH  032%=      5-min Rain = 0
KCA1 152001Z 24007KT 12/M04 A3014 RMK A01 T01221040  RH  032%=      5-min Rain = 0
KCA1 152002Z 26005KT 12/M04 A3014 RMK A01 T01231041  RH  032%=      5-min Rain = 0
KCA1 152003Z 28003KT 12/M05 A3014 RMK A01 T01231046  RH  031%=      5-min Rain = 0
KCA1 152004Z 31002KT 12/M05 A3014 RMK A01 T01211045  RH  031%=      5-min Rain = 0
KCA1 152005Z 24003KT 12/M04 A3014 RMK A01 T01231040  RH  032%=      5-min Rain = 0
KCA1 152006Z 21003KT 12/M04 A3014 RMK A01 T01241043  RH  031%=      5-min Rain = 0
KCA1 152007Z 19001KT 12/M05 A3014 RMK A01 T01231047  RH  030%=      5-min Rain = 0
KCA1 152008Z 20006KT 12/M04 A3014 RMK A01 T01231042  RH  031%=      5-min Rain = 0
KCA1 152009Z 21004KT 13/M04 A3014 RMK A01 T01251040  RH  031%=      5-min Rain = 0
KCA1 152010Z 20006KT 13/M04 A3013 RMK A01 T01261042  RH  031%=      5-min Rain = 0
KCA1 152011Z 21004KT 13/M04 A3013 RMK A01 T01261042  RH  031%=      5-min Rain = 0
KCA1 152012Z 21005KT 13/M04 A3013 RMK A01 T01251041  RH  031%=      5-min Rain = 0
KCA1 152013Z 18005KT 13/M04 A3013 RMK A01 T01251041  RH  031%=      5-min Rain = 0
KCA1 152014Z 18001KT 13/M04 A3013 RMK A01 T01261043  RH  031%=      5-min Rain = 0
KCA1 152015Z 04004KT 13/M04 A3013 RMK A01 T01271035  RH  032%=      5-min Rain = 0
KCA1 152016Z 26007KT 13/M04 A3013 RMK A01 T01271042  RH  031%=      5-min Rain = 0
KCA1 152017Z 26009KT 13/M03 A3013 RMK A01 T01281034  RH  032%=      5-min Rain = 0
KCA1 152018Z 27010KT 13/M03 A3013 RMK A01 T01321032  RH  032%=      5-min Rain = 0
KCA1 152019Z 27007KT 13/M03 A3013 RMK A01 T01341033  RH  031%=      5-min Rain = 0
KCA1 152020Z 28009KT 13/M04 A3013 RMK A01 T01341035  RH  031%=      5-min Rain = 0
KCA1 152021Z 30003KT 13/M04 A3013 RMK A01 T01311042  RH  030%=      5-min Rain = 0
KCA1 152022Z 26006KT 13/M04 A3013 RMK A01 T01281040  RH  031%=      5-min Rain = 0
KCA1 152023Z 24007KT 13/M03 A3013 RMK A01 T01321032  RH  032%=      5-min Rain = 0
KCA1 152024Z 25004KT 13/M04 A3013 RMK A01 T01331038  RH  030%=      5-min Rain = 0
KCA1 152025Z 25003KT 13/M04 A3013 RMK A01 T01321038  RH  030%=      5-min Rain = 0
KCA1 152026Z 28006KT 13/M04 A3013 RMK A01 T01331038  RH  030%=      5-min Rain = 0
KCA1 152027Z 30007KT 13/M04 A3013 RMK A01 T01341035  RH  031%=      5-min Rain = 0
KCA1 152028Z 30007KT 14/M04 A3013 RMK A01 T01361040  RH  029%=      5-min Rain = 0
KCA1 152029Z 31006KT 13/M04 A3013 RMK A01 T01321042  RH  030%=      5-min Rain = 0
KCA1 152030Z 34005KT 13/M04 A3013 RMK A01 T01301040  RH  030%=      5-min Rain = 0
KCA1 152031Z 01002KT 13/M04 A3013 RMK A01 T01281040  RH  031%=      5-min Rain = 0
KCA1 152032Z 21002KT 13/M04 A3013 RMK A01 T01281037  RH  031%=      5-min Rain = 0
KCA1 152033Z 23003KT 13/M04 A3012 RMK A01 T01301037  RH  031%=      5-min Rain = 0
KCA1 152034Z 25002G7KT 13/M05 A3012 RMK A01 T01301046  RH  029%=      5-min Rain = 0
KCA1 152035Z 24007KT 13/M04 A3012 RMK A01 T01291041  RH  030%=      5-min Rain = 0
KCA1 152036Z 23007KT 13/M04 A3012 RMK A01 T01291041  RH  030%=      5-min Rain = 0
KCA1 152037Z 23005KT 13/M05 A3012 RMK A01 T01271045  RH  030%=      5-min Rain = 0
KCA1 152038Z 26001KT 13/M05 A3012 RMK A01 T01261045  RH  030%=      5-min Rain = 0
KCA1 152039Z 05001KT 13/M05 A3012 RMK A01 T01261046  RH  030%=      5-min Rain = 0
KCA1 152040Z 18002KT 13/M04 A3012 RMK A01 T01251044  RH  030%=      5-min Rain = 0
KCA1 152041Z 20004KT 13/M04 A3012 RMK A01 T01261041  RH  031%=      5-min Rain = 0
KCA1 152042Z 18004KT 13/M04 A3012 RMK A01 T01281041  RH  031%=      5-min Rain = 0
KCA1 152043Z 18003KT 13/M04 A3012 RMK A01 T01291043  RH  030%=      5-min Rain = 0
KCA1 152044Z 18004KT 13/M04 A3012 RMK A01 T01291044  RH  030%=      5-min Rain = 0
KCA1 152045Z 21009KT 13/M04 A3012 RMK A01 T01311036  RH  031%=      5-min Rain = 0
KCA1 152046Z 26008KT 13/M04 A3012 RMK A01 T01341036  RH  031%=      5-min Rain = 0
KCA1 152047Z 28007KT 14/M04 A3012 RMK A01 T01361037  RH  030%=      5-min Rain = 0
KCA1 152048Z 30007KT 14/M04 A3012 RMK A01 T01371038  RH  030%=      5-min Rain = 0
KCA1 152049Z 31006KT 14/M04 A3012 RMK A01 T01351040  RH  029%=      5-min Rain = 0
KCA1 152050Z 31006KT 13/M04 A3012 RMK A01 T01321044  RH  029%=      5-min Rain = 0
KCA1 152051Z 30006KT 13/M04 A3012 RMK A01 T01301044  RH  030%=      5-min Rain = 0
KCA1 152052Z 27005KT 13/M05 A3012 RMK A01 T01291046  RH  029%=      5-min Rain = 0
KCA1 152053Z 22004KT 13/M04 A3012 RMK A01 T01291038  RH  031%=      5-min Rain = 0
KCA1 152054Z 23005KT 13/M04 A3012 RMK A01 T01331041  RH  030%=      5-min Rain = 0
KCA1 152055Z 26008KT 13/M04 A3012 RMK A01 T01341038  RH  030%=      5-min Rain = 0
KCA1 152056Z 27007KT 14/M04 A3012 RMK A01 T01371039  RH  029%=      5-min Rain = 0
KCA1 152057Z 28007KT 14/M04 A3012 RMK A01 T01371041  RH  029%=      5-min Rain = 0
KCA1 152058Z 27003KT 13/M05 A3012 RMK A01 T01341048  RH  028%=      5-min Rain = 0
KCA1 152059Z 26004KT 13/M05 A3011 RMK A01 T01311045  RH  029%=      5-min Rain = 0
KCA1 152100Z 23008KT 13/M04 A3011 RMK A01 T01331038  RH  030%=      5-min Rain = 0
KCA1 152101Z 23007KT 14/M04 A3011 RMK A01 T01351041  RH  029%=      5-min Rain = 0
KCA1 152102Z 24008KT 13/M04 A3011 RMK A01 T01341043  RH  029%=      5-min Rain = 0
KCA1 152103Z 23006KT 13/M04 A3011 RMK A01 T01321042  RH  029%=      5-min Rain = 0
KCA1 152104Z 23004KT 13/M04 A3011 RMK A01 T01321040  RH  030%=      5-min Rain = 0
KCA1 152105Z 17006KT 13/M04 A3011 RMK A01 T01341040  RH  030%=      5-min Rain = 0
KCA1 152106Z 17004KT 14/M04 A3011 RMK A01 T01351043  RH  029%=      5-min Rain = 0
KCA1 152107Z 19003KT 13/M05 A3011 RMK A01 T01331046  RH  028%=      5-min Rain = 0
KCA1 152108Z 19003KT 13/M05 A3011 RMK A01 T01321047  RH  028%=      5-min Rain = 0
KCA1 152109Z 22007KT 13/M04 A3011 RMK A01 T01331042  RH  029%=      5-min Rain = 0
KCA1 152110Z 21008KT 14/M04 A3011 RMK A01 T01351036  RH  030%=      5-min Rain = 0
KCA1 152111Z 21007KT 14/M04 A3011 RMK A01 T01381038  RH  029%=      5-min Rain = 0
KCA1 152112Z 21008KT 14/M04 A3011 RMK A01 T01381040  RH  029%=      5-min Rain = 0
KCA1 152113Z 22008KT 14/M04 A3011 RMK A01 T01371041  RH  029%=      5-min Rain = 0
KCA1 152114Z 23007KT 14/M04 A3011 RMK A01 T01371043  RH  029%=      5-min Rain = 0
KCA1 152115Z 23003KT 13/M05 A3011 RMK A01 T01341050  RH  028%=      5-min Rain = 0
KCA1 152116Z 22004KT 13/M05 A3011 RMK A01 T01311050  RH  028%=      5-min Rain = 0
KCA1 152117Z 19008KT 13/M04 A3011 RMK A01 T01311043  RH  029%=      5-min Rain = 0
KCA1 152118Z 19006KT 13/M04 A301 RMK A01 T01341044  RH  029%=      5-min Rain = 0
KCA1 152119Z 17003KT 13/M04 A3011 RMK A01 T01341044  RH  029%=      5-min Rain = 0
KCA1 152120Z 18002KT 13/M05 A301 RMK A01 T01341045  RH  029%=      5-min Rain = 0
KCA1 152121Z 22005KT 14/M04 A301 RMK A01 T01351044  RH  029%=      5-min Rain = 0
KCA1 152122Z 26005KT 14/M04 A301 RMK A01 T01371042  RH  029%=      5-min Rain = 0
KCA1 152123Z 24006KT 14/M04 A301 RMK A01 T01371044  RH  028%=      5-min Rain = 0
KCA1 152124Z 23007KT 14/M05 A301 RMK A01 T01361045  RH  028%=      5-min Rain = 0
KCA1 152125Z 23008KT 14/M04 A301 RMK A01 T01361044  RH  028%=      5-min Rain = 0
KCA1 152126Z 25004KT 14/M04 A301 RMK A01 T01361042  RH  029%=      5-min Rain = 0
KCA1 152127Z 24001KT 14/M05 A301 RMK A01 T01371050  RH  027%=      5-min Rain = 0
KCA1 152128Z 24007KT 14/M05 A301 RMK A01 T01351047  RH  028%=      5-min Rain = 0
KCA1 152129Z 24007KT 14/M04 A301 RMK A01 T01371044  RH  028%=      5-min Rain = 0
KCA1 152130Z 22009KT 14/M04 A301 RMK A01 T01371042  RH  029%=      5-min Rain = 0
KCA1 152131Z 23008KT 14/M04 A301 RMK A01 T01381041  RH  029%=      5-min Rain = 0
KCA1 152132Z 22008KT 14/M05 A301 RMK A01 T01381045  RH  028%=      5-min Rain = 0
KCA1 152133Z 23006KT 14/M04 A301 RMK A01 T01361044  RH  028%=      5-min Rain = 0
KCA1 152134Z 22005KT 14/M04 A301 RMK A01 T01371044  RH  028%=      5-min Rain = 0
KCA1 152135Z 23005KT 14/M05 A301 RMK A01 T01371045  RH  028%=      5-min Rain = 0
KCA1 152136Z 21008KT 14/M05 A301 RMK A01 T01371045  RH  028%=      5-min Rain = 0
KCA1 152137Z 21008KT 14/M04 A301 RMK A01 T01381041  RH  029%=      5-min Rain = 0
KCA1 152138Z 21006KT 14/M04 A301 RMK A01 T01391042  RH  028%=      5-min Rain = 0
KCA1 152139Z 23008KT 14/M04 A301 RMK A01 T01401040  RH  028%=      5-min Rain = 0
KCA1 152140Z 22008KT 14/M05 A301 RMK A01 T01391048  RH  027%=      5-min Rain = 0
KCA1 152141Z 21006KT 14/M05 A301 RMK A01 T01351048  RH  028%=      5-min Rain = 0
KCA1 152142Z 19006KT 13/M05 A301 RMK A01 T01341046  RH  028%=      5-min Rain = 0
KCA1 152143Z 19004KT 14/M05 A301 RMK A01 T01351047  RH  028%=      5-min Rain = 0
KCA1 152144Z 15002KT 14/M05 A301 RMK A01 T01351048  RH  028%=      5-min Rain = 0
KCA1 152145Z 19003KT 14/M04 A301 RMK A01 T01361044  RH  028%=      5-min Rain = 0
KCA1 152146Z 21007KT 14/M05 A301 RMK A01 T01381045  RH  028%=      5-min Rain = 0
KCA1 152147Z 21006KT 14/M04 A301 RMK A01 T01391042  RH  028%=      5-min Rain = 0
KCA1 152148Z 24006KT 14/M04 A301 RMK A01 T01411043  RH  028%=      5-min Rain = 0
KCA1 152149Z 23007KT 14/M04 A3009 RMK A01 T01401044  RH  028%=      5-min Rain = 0
KCA1 152150Z 23008KT 14/M05 A3009 RMK A01 T01391046  RH  027%=      5-min Rain = 0
KCA1 152151Z 21007KT 14/M05 A3009 RMK A01 T01381045  RH  028%=      5-min Rain = 0
KCA1 152152Z 21006KT 14/M05 A3009 RMK A01 T01371047  RH  028%=      5-min Rain = 0
KCA1 152153Z 23004KT 14/M05 A3009 RMK A01 T01361048  RH  028%=      5-min Rain = 0
KCA1 152154Z 21006KT 14/M05 A3009 RMK A01 T01361046  RH  028%=      5-min Rain = 0
KCA1 152155Z 20004KT 14/M05 A3009 RMK A01 T01361047  RH  028%=      5-min Rain = 0
KCA1 152156Z 20006KT 14/M05 A3009 RMK A01 T01361046  RH  028%=      5-min Rain = 0
KCA1 152157Z 22005KT 14/M04 A3009 RMK A01 T01371044  RH  028%=      5-min Rain = 0
KCA1 152158Z 21005KT 14/M04 A3009 RMK A01 T01391044  RH  028%=      5-min Rain = 0
KCA1 152159Z 21005KT 14/M04 A3009 RMK A01 T01401044  RH  028%=      5-min Rain = 0
KCA1 152200Z 23006KT 14/M04 A3009 RMK A01 T01411044  RH  027%=      5-min Rain = 0
KCA1 152201Z 23008KT 14/M05 A3009 RMK A01 T01411045  RH  027%=      5-min Rain = 0
KCA1 152202Z 25007KT 14/M05 A3009 RMK A01 T01401045  RH  027%=      5-min Rain = 0
KCA1 152203Z 25004KT 14/M05 A3009 RMK A01 T01391045  RH  028%=      5-min Rain = 0
KCA1 152204Z 21004KT 14/M05 A3009 RMK A01 T01391048  RH  027%=      5-min Rain = 0
KCA1 152205Z 19004KT 14/M05 A3009 RMK A01 T01381048  RH  027%=      5-min Rain = 0
KCA1 152206Z 20005KT 14/M05 A3008 RMK A01 T01371049  RH  027%=      5-min Rain = 0
KCA1 152207Z 20005KT 14/M05 A3008 RMK A01 T01371047  RH  027%=      5-min Rain = 0
KCA1 152208Z 20005KT 14/M05 A3008 RMK A01 T01381049  RH  027%=      5-min Rain = 0
KCA1 152209Z 19004KT 14/M05 A3008 RMK A01 T01371049  RH  027%=      5-min Rain = 0
KCA1 152210Z 21005KT 14/M04 A3008 RMK A01 T01391043  RH  028%=      5-min Rain = 0
KCA1 152211Z 21003KT 14/M04 A3008 RMK A01 T01421044  RH  027%=      5-min Rain = 0
KCA1 152212Z 22006KT 14/M05 A3008 RMK A01 T01421046  RH  027%=      5-min Rain = 0
KCA1 152213Z 23006KT 14/M05 A3008 RMK A01 T01421047  RH  027%=      5-min Rain = 0
KCA1 152214Z 23005KT 14/M05 A3008 RMK A01 T01401047  RH  027%=      5-min Rain = 0
KCA1 152215Z 24006KT 14/M05 A3008 RMK A01 T01391049  RH  027%=      5-min Rain = 0
KCA1 152216Z 23004KT 14/M05 A3008 RMK A01 T01391047  RH  027%=      5-min Rain = 0
KCA1 152217Z 26004KT 14/M05 A3008 RMK A01 T01391046  RH  027%=      5-min Rain = 0
KCA1 152218Z 26004KT 14/M05 A3008 RMK A01 T01411045  RH  027%=      5-min Rain = 0
KCA1 152219Z 25005KT 14/M04 A3008 RMK A01 T01421043  RH  027%=      5-min Rain = 0
KCA1 152220Z 23007KT 14/M04 A3008 RMK A01 T01431040  RH  028%=      5-min Rain = 0
KCA1 152221Z 24007KT 14/M05 A3008 RMK A01 T01431045  RH  027%=      5-min Rain = 0
KCA1 152222Z 23006KT 14/M04 A3008 RMK A01 T01421043  RH  028%=      5-min Rain = 0
KCA1 152223Z 22006KT 14/M05 A3008 RMK A01 T01421045  RH  027%=      5-min Rain = 0
KCA1 152224Z 21005KT 14/M05 A3008 RMK A01 T01401049  RH  027%=      5-min Rain = 0
KCA1 152225Z 19004KT 14/M05 A3008 RMK A01 T01391046  RH  027%=      5-min Rain = 0
KCA1 152226Z 23007KT 14/M05 A3008 RMK A01 T01391047  RH  027%=      5-min Rain = 0
KCA1 152227Z 25007KT 14/M05 A3008 RMK A01 T01391046  RH  027%=      5-min Rain = 0
KCA1 152228Z 24007KT 14/M04 A3008 RMK A01 T01401044  RH  028%=      5-min Rain = 0
KCA1 152229Z 22007KT 14/M04 A3008 RMK A01 T01411043  RH  028%=      5-min Rain = 0
KCA1 152230Z 21006KT 14/M05 A3008 RMK A01 T01411045  RH  027%=      5-min Rain = 0
KCA1 152231Z 21005KT 14/M05 A3008 RMK A01 T01401045  RH  027%=      5-min Rain = 0
KCA1 152232Z 21006KT 14/M05 A3008 RMK A01 T01401045  RH  027%=      5-min Rain = 0
KCA1 152233Z 22006KT 14/M04 A3008 RMK A01 T01411044  RH  027%=      5-min Rain = 0
KCA1 152234Z 25003KT 14/M05 A3008 RMK A01 T01411046  RH  027%=      5-min Rain = 0
KCA1 152235Z 24003KT 14/M05 A3008 RMK A01 T01401047  RH  027%=      5-min Rain = 0
KCA1 152236Z 23006KT 14/M04 A3008 RMK A01 T01401044  RH  028%=      5-min Rain = 0
KCA1 152237Z 22006KT 14/M04 A3008 RMK A01 T01411044  RH  027%=      5-min Rain = 0
KCA1 152238Z 21006KT 14/M05 A3008 RMK A01 T01411045  RH  027%=      5-min Rain = 0
KCA1 152239Z 22004KT 14/M05 A3008 RMK A01 T01401049  RH  027%=      5-min Rain = 0
KCA1 152240Z 23005KT 14/M05 A3007 RMK A01 T01381048  RH  027%=      5-min Rain = 0
KCA1 152241Z 23004KT 14/M04 A3007 RMK A01 T01381044  RH  028%=      5-min Rain = 0
KCA1 152242Z 24007KT 14/M04 A3007 RMK A01 T01411041  RH  028%=      5-min Rain = 0
KCA1 152243Z 24006KT 14/M05 A3007 RMK A01 T01411045  RH  027%=      5-min Rain = 0
KCA1 152244Z 24008KT 14/M04 A3007 RMK A01 T01421044  RH  027%=      5-min Rain = 0
KCA1 152245Z 23007KT 14/M04 A3007 RMK A01 T01421044  RH  027%=      5-min Rain = 0
KCA1 152246Z 23006KT 14/M05 A3007 RMK A01 T01421045  RH  027%=      5-min Rain = 0
KCA1 152247Z 22005KT 14/M05 A3007 RMK A01 T01411047  RH  027%=      5-min Rain = 0
KCA1 152248Z 22006KT 14/M05 A3007 RMK A01 T01391048  RH  027%=      5-min Rain = 0
KCA1 152249Z 23004KT 14/M05 A3007 RMK A01 T01391048  RH  027%=      5-min Rain = 0
KCA1 152250Z 23006KT 14/M05 A3007 RMK A01 T01381051  RH  027%=      5-min Rain = 0
KCA1 152251Z 23004KT 14/M05 A3007 RMK A01 T01381047  RH  027%=      5-min Rain = 0
KCA1 152252Z 24003KT 14/M05 A3007 RMK A01 T01391045  RH  028%=      5-min Rain = 0
KCA1 152253Z 27004KT 14/M04 A3007 RMK A01 T01401044  RH  028%=      5-min Rain = 0
KCA1 152254Z 27006KT 14/M05 A3007 RMK A01 T01421045  RH  027%=      5-min Rain = 0
KCA1 152255Z 29006KT 14/M05 A3007 RMK A01 T01411047  RH  027%=      5-min Rain = 0
KCA1 152256Z 30004KT 14/M05 A3007 RMK A01 T01401049  RH  027%=      5-min Rain = 0
KCA1 152257Z 30003KT 14/M05 A3007 RMK A01 T01371051  RH  027%=      5-min Rain = 0
KCA1 152258Z 23004KT 14/M05 A3007 RMK A01 T01371049  RH  027%=      5-min Rain = 0
KCA1 152259Z 23006KT 14/M05 A3007 RMK A01 T01381048  RH  027%=      5-min Rain = 0
KCA1 152300Z 23005KT 14/M05 A3007 RMK A01 T01391049  RH  027%=      5-min Rain = 0
KCA1 152301Z 22005KT 14/M05 A3007 RMK A01 T01391050  RH  027%=      5-min Rain = 0
KCA1 152302Z 23005KT 14/M05 A3007 RMK A01 T01381049  RH  027%=      5-min Rain = 0
KCA1 152303Z 23006KT 14/M05 A3007 RMK A01 T01381049  RH  027%=      5-min Rain = 0
KCA1 152304Z 21005KT 14/M05 A3007 RMK A01 T01381050  RH  027%=      5-min Rain = 0
KCA1 152305Z 21004KT 14/M05 A3007 RMK A01 T01371052  RH  027%=      5-min Rain = 0
KCA1 152306Z 21003KT 14/M05 A3007 RMK A01 T01371051  RH  027%=      5-min Rain = 0
KCA1 152307Z 25003KT 14/M05 A3007 RMK A01 T01371050  RH  027%=      5-min Rain = 0
KCA1 152308Z 26003KT 14/M05 A3007 RMK A01 T01371046  RH  028%=      5-min Rain = 0
KCA1 152309Z 27002KT 14/M05 A3007 RMK A01 T01391046  RH  027%=      5-min Rain = 0
KCA1 152310Z 28003KT 14/M05 A3007 RMK A01 T01401048  RH  027%=      5-min Rain = 0
KCA1 152311Z 26003KT 14/M05 A3007 RMK A01 T01411048  RH  027%=      5-min Rain = 0
KCA1 152312Z 24002KT 14/M05 A3007 RMK A01 T01401048  RH  027%=      5-min Rain = 0
KCA1 152313Z 23003KT 14/M05 A3006 RMK A01 T01401046  RH  027%=      5-min Rain = 0
KCA1 152314Z 21003KT 14/M05 A3006 RMK A01 T01421046  RH  027%=      5-min Rain = 0
KCA1 152315Z 19004KT 14/M05 A3006 RMK A01 T01411048  RH  027%=      5-min Rain = 0
KCA1 152316Z 20005KT 14/M05 A3006 RMK A01 T01421047  RH  027%=      5-min Rain = 0
KCA1 152317Z 24006KT 14/M05 A3006 RMK A01 T01421045  RH  027%=      5-min Rain = 0
KCA1 152318Z 22005KT 14/M05 A3006 RMK A01 T01411047  RH  027%=      5-min Rain = 0
KCA1 152319Z 22004KT 14/M05 A3006 RMK A01 T01401047  RH  027%=      5-min Rain = 0
KCA1 152320Z 22004KT 14/M05 A3006 RMK A01 T01391046  RH  027%=      5-min Rain = 0
KCA1 152321Z 22004KT 14/M05 A3006 RMK A01 T01391046  RH  027%=      5-min Rain = 0
KCA1 152322Z 22004KT 14/M05 A3006 RMK A01 T01391049  RH  027%=      5-min Rain = 0
KCA1 152323Z 22004KT 14/M05 A3006 RMK A01 T01391049  RH  027%=      5-min Rain = 0
KCA1 152324Z 24005KT 14/M05 A3006 RMK A01 T01381048  RH  027%=      5-min Rain = 0
KCA1 152325Z 24004KT 14/M05 A3006 RMK A01 T01371048  RH  027%=      5-min Rain = 0
KCA1 152326Z 22006KT 14/M05 A3006 RMK A01 T01371047  RH  027%=      5-min Rain = 0
KCA1 152327Z 22005KT 14/M05 A3006 RMK A01 T01381047  RH  027%=      5-min Rain = 0
KCA1 152328Z 21004KT 14/M05 A3006 RMK A01 T01371047  RH  027%=      5-min Rain = 0
KCA1 152329Z 22004KT 14/M05 A3006 RMK A01 T01371046  RH  028%=      5-min Rain = 0
KCA1 152330Z 23004KT 14/M05 A3006 RMK A01 T01381047  RH  027%=      5-min Rain = 0
KCA1 152331Z 23004KT 14/M05 A3006 RMK A01 T01381048  RH  027%=      5-min Rain = 0
KCA1 152332Z 21003KT 14/M05 A3006 RMK A01 T01371050  RH  027%=      5-min Rain = 0
KCA1 152333Z 24003KT 14/M05 A3006 RMK A01 T01371049  RH  027%=      5-min Rain = 0
KCA1 152334Z 25003KT 14/M05 A3006 RMK A01 T01371046  RH  028%=      5-min Rain = 0
KCA1 152335Z 24003KT 14/M05 A3006 RMK A01 T01381048  RH  027%=      5-min Rain = 0
KCA1 152336Z 22003KT 14/M05 A3006 RMK A01 T01381049  RH  027%=      5-min Rain = 0
KCA1 152337Z 22002KT 14/M05 A3006 RMK A01 T01371049  RH  027%=      5-min Rain = 0
KCA1 152338Z 22002KT 14/M05 A3006 RMK A01 T01381049  RH  027%=      5-min Rain = 0
KCA1 152339Z 21003KT 14/M05 A3006 RMK A01 T01381048  RH  027%=      5-min Rain = 0
KCA1 152340Z 22004KT 14/M05 A3006 RMK A01 T01371048  RH  027%=      5-min Rain = 0
KCA1 152341Z 23005KT 14/M05 A3006 RMK A01 T01371048  RH  027%=      5-min Rain = 0
KCA1 152342Z 23004KT 14/M05 A3006 RMK A01 T01361050  RH  027%=      5-min Rain = 0
KCA1 152343Z 23004KT 14/M05 A3006 RMK A01 T01351050  RH  027%=      5-min Rain = 0
KCA1 152344Z 21004KT 13/M05 A3006 RMK A01 T01341049  RH  028%=      5-min Rain = 0
KCA1 152345Z 22003KT 13/M05 A3006 RMK A01 T01341047  RH  028%=      5-min Rain = 0
KCA1 152346Z 22004KT 13/M05 A3006 RMK A01 T01341048  RH  028%=      5-min Rain = 0
KCA1 152347Z 21004KT 13/M05 A3006 RMK A01 T01341047  RH  028%=      5-min Rain = 0
KCA1 152348Z 21004KT 13/M05 A3006 RMK A01 T01331047  RH  028%=      5-min Rain = 0
KCA1 152349Z 21005KT 13/M05 A3006 RMK A01 T01321047  RH  028%=      5-min Rain = 0
KCA1 152350Z 21005KT 13/M05 A3006 RMK A01 T01321045  RH  029%=      5-min Rain = 0
KCA1 152351Z 21005KT 13/M04 A3006 RMK A01 T01311044  RH  029%=      5-min Rain = 0
KCA1 152352Z 21004KT 13/M04 A3006 RMK A01 T01301043  RH  030%=      5-min Rain = 0
KCA1 152353Z 20004KT 13/M04 A3006 RMK A01 T01301043  RH  030%=      5-min Rain = 0
KCA1 152354Z 20006KT 13/M04 A3006 RMK A01 T01291043  RH  030%=      5-min Rain = 0
KCA1 152355Z 18005KT 13/M04 A3006 RMK A01 T01291044  RH  030%=      5-min Rain = 0
KCA1 152356Z 18004KT 13/M04 A3006 RMK A01 T01291043  RH  030%=      5-min Rain = 0
KCA1 152357Z 18005KT 13/M04 A3006 RMK A01 T01281043  RH  030%=      5-min Rain = 0
KCA1 152358Z 18005KT 13/M04 A3006 RMK A01 T01281041  RH  030%=      5-min Rain = 0
KCA1 152359Z 19005KT 13/M04 A3006 RMK A01 T01271042  RH  030%=      5-min Rain = 0
KCA1 160000Z 19005KT 13/M04 A3006 RMK A01 T01271042  RH  031%=      5-min Rain = 0
KCA1 160001Z 20005KT 13/M04 A3006 RMK A01 T01261042  RH  031%=      5-min Rain = 0
KCA1 160002Z 21004KT 13/M04 A3006 RMK A01 T01261043  RH  031%=      5-min Rain = 0
KCA1 160003Z 19004KT 13/M04 A3006 RMK A01 T01251042  RH  031%=      5-min Rain = 0
KCA1 160004Z 19004KT 12/M04 A3006 RMK A01 T01241042  RH  031%=      5-min Rain = 0
KCA1 160005Z 20004KT 12/M04 A3006 RMK A01 T01241043  RH  031%=      5-min Rain = 0
KCA1 160006Z 20003KT 12/M04 A3006 RMK A01 T01241042  RH  031%=      5-min Rain = 0
KCA1 160007Z 19003KT 12/M04 A3006 RMK A01 T01231042  RH  031%=      5-min Rain = 0
KCA1 160008Z 19003KT 12/M04 A3006 RMK A01 T01221042  RH  031%=      5-min Rain = 0
KCA1 160009Z 20004KT 12/M04 A3005 RMK A01 T01221042  RH  032%=      5-min Rain = 0
KCA1 160010Z 19003KT 12/M04 A3005 RMK A01 T01211043  RH  032%=      5-min Rain = 0
KCA1 160011Z 19003KT 12/M04 A3005 RMK A01 T01211043  RH  032%=      5-min Rain = 0
KCA1 160012Z 19003KT 12/M04 A3005 RMK A01 T01201043  RH  032%=      5-min Rain = 0
KCA1 160013Z 19003KT 12/M04 A3005 RMK A01 T01191044  RH  032%=      5-min Rain = 0
KCA1 160014Z 18003KT 12/M04 A3005 RMK A01 T01191044  RH  032%=      5-min Rain = 0
KCA1 160015Z 18004KT 12/M04 A3005 RMK A01 T01181044  RH  032%=      5-min Rain = 0
KCA1 160016Z 18004KT 12/M04 A3005 RMK A01 T01181044  RH  032%=      5-min Rain = 0
KCA1 160017Z 18004KT 12/M05 A3005 RMK A01 T01171045  RH  032%=      5-min Rain = 0
KCA1 160018Z 17004KT 12/M05 A3005 RMK A01 T01161045  RH  032%=      5-min Rain = 0
KCA1 160019Z 18004KT 12/M05 A3005 RMK A01 T01151045  RH  032%=      5-min Rain = 0
KCA1 160020Z 18004KT 11/M05 A3005 RMK A01 T01141045  RH  033%=      5-min Rain = 0
KCA1 160021Z 18003KT 11/M05 A3005 RMK A01 T01131046  RH  032%=      5-min Rain = 0
KCA1 160022Z 18003KT 11/M05 A3005 RMK A01 T01131046  RH  033%=      5-min Rain = 0
KCA1 160023Z 17003KT 11/M05 A3005 RMK A01 T01121046  RH  033%=      5-min Rain = 0
KCA1 160024Z 17003KT 11/M05 A3005 RMK A01 T01121046  RH  033%=      5-min Rain = 0
KCA1 160025Z 15003KT 11/M05 A3005 RMK A01 T01111046  RH  033%=      5-min Rain = 0
KCA1 160026Z 15003KT 11/M05 A3005 RMK A01 T01091045  RH  033%=      5-min Rain = 0
KCA1 160027Z 16003KT 11/M05 A3005 RMK A01 T01081045  RH  034%=      5-min Rain = 0
KCA1 160028Z 17004KT 11/M05 A3005 RMK A01 T01061045  RH  034%=      5-min Rain = 0
KCA1 160029Z 16003KT 11/M05 A3005 RMK A01 T01051045  RH  034%=      5-min Rain = 0
KCA1 160030Z 16003KT 11/M04 A3005 RMK A01 T01051044  RH  035%=      5-min Rain = 0
KCA1 160031Z 17003KT 10/M04 A3005 RMK A01 T01041044  RH  035%=      5-min Rain = 0
KCA1 160032Z 16003KT 10/M04 A3005 RMK A01 T01031043  RH  035%=      5-min Rain = 0
KCA1 160033Z 17003KT 10/M04 A3005 RMK A01 T01021043  RH  036%=      5-min Rain = 0
KCA1 160034Z 17003KT 10/M04 A3005 RMK A01 T01011042  RH  036%=      5-min Rain = 0
KCA1 160035Z 17003KT 10/M04 A3005 RMK A01 T01011043  RH  036%=      5-min Rain = 0
KCA1 160036Z 17003KT 10/M04 A3005 RMK A01 T01011042  RH  036%=      5-min Rain = 0
KCA1 160037Z 17003KT 10/M04 A3005 RMK A01 T01011042  RH  036%=      5-min Rain = 0
KCA1 160038Z 17003KT 10/M04 A3005 RMK A01 T01011042  RH  036%=      5-min Rain = 0
KCA1 160039Z 17003KT 10/M04 A3005 RMK A01 T01011042  RH  036%=      5-min Rain = 0
KCA1 160040Z 16003KT 10/M04 A3005 RMK A01 T01001043  RH  036%=      5-min Rain = 0
KCA1 160041Z 16003KT 10/M04 A3005 RMK A01 T00991042  RH  037%=      5-min Rain = 0
KCA1 160042Z 16003KT 10/M04 A3005 RMK A01 T00981042  RH  037%=      5-min Rain = 0
KCA1 160043Z 16004KT 10/M04 A3005 RMK A01 T00971042  RH  037%=      5-min Rain = 0
KCA1 160044Z 15004KT 10/M04 A3005 RMK A01 T00971042  RH  037%=      5-min Rain = 0
KCA1 160045Z 15004KT 10/M04 A3005 RMK A01 T00961042  RH  038%=      5-min Rain = 0
KCA1 160046Z 16005KT 09/M04 A3006 RMK A01 T00941042  RH  038%=      5-min Rain = 0
KCA1 160047Z 16005KT 09/M04 A3006 RMK A01 T00931041  RH  038%=      5-min Rain = 0
KCA1 160048Z 15004KT 09/M04 A3006 RMK A01 T00921041  RH  039%=      5-min Rain = 0
KCA1 160049Z 15004KT 09/M04 A3006 RMK A01 T00901041  RH  039%=      5-min Rain = 0
KCA1 160050Z 15004KT 09/M04 A3006 RMK A01 T00881039  RH  040%=      5-min Rain = 0
KCA1 160051Z 16004KT 09/M04 A3006 RMK A01 T00851038  RH  042%=      5-min Rain = 0
KCA1 160052Z 16004KT 08/M04 A3006 RMK A01 T00841037  RH  042%=      5-min Rain = 0
KCA1 160053Z 16003KT 08/M04 A3006 RMK A01 T00831036  RH  043%=      5-min Rain = 0
KCA1 160054Z 16003KT 08/M04 A3006 RMK A01 T00821036  RH  043%=      5-min Rain = 0
KCA1 160055Z 16003KT 08/M04 A3006 RMK A01 T00821036  RH  043%=      5-min Rain = 0
KCA1 160056Z 15003KT 08/M04 A3006 RMK A01 T00821035  RH  043%=      5-min Rain = 0
KCA1 160057Z 16003KT 08/M03 A3006 RMK A01 T00821034  RH  044%=      5-min Rain = 0
KCA1 160058Z 17003KT 08/M03 A3006 RMK A01 T00821034  RH  044%=      5-min Rain = 0
KCA1 160059Z 15003KT 08/M03 A3006 RMK A01 T00811033  RH  044%=      5-min Rain = 0
KCA1 160100Z 17003KT 08/M03 A3006 RMK A01 T00811032  RH  045%=      5-min Rain = 0
KCA1 160101Z 18004KT 08/M03 A3006 RMK A01 T00811032  RH  045%=      5-min Rain = 0
KCA1 160102Z 17003KT 08/M03 A3006 RMK A01 T00811031  RH  045%=      5-min Rain = 0
KCA1 160103Z 17003KT 08/M03 A3006 RMK A01 T00821031  RH  045%=      5-min Rain = 0
KCA1 160104Z 17004KT 08/M03 A3006 RMK A01 T00821030  RH  045%=      5-min Rain = 0
KCA1 160105Z 18004KT 08/M03 A3006 RMK A01 T00821029  RH  045%=      5-min Rain = 0
KCA1 160106Z 17004KT 08/M03 A3006 RMK A01 T00821029  RH  046%=      5-min Rain = 0
KCA1 160107Z 17003KT 08/M03 A3006 RMK A01 T00811028  RH  046%=      5-min Rain = 0
KCA1 160108Z 18004KT 08/M03 A3006 RMK A01 T00801028  RH  047%=      5-min Rain = 0
KCA1 160109Z 16003KT 08/M03 A3006 RMK A01 T00791027  RH  047%=      5-min Rain = 0
KCA1 160110Z 17003KT 08/M03 A3006 RMK A01 T00791026  RH  047%=      5-min Rain = 0
KCA1 160111Z 17003KT 08/M03 A3006 RMK A01 T00791026  RH  047%=      5-min Rain = 0
KCA1 160112Z 17004KT 08/M03 A3006 RMK A01 T00781027  RH  047%=      5-min Rain = 0
KCA1 160113Z 17005KT 08/M03 A3007 RMK A01 T00781026  RH  048%=      5-min Rain = 0
KCA1 160114Z 17004KT 08/M03 A3007 RMK A01 T00781026  RH  048%=      5-min Rain = 0
KCA1 160115Z 16004KT 08/M03 A3007 RMK A01 T00781026  RH  048%=      5-min Rain = 0
KCA1 160116Z 17004KT 08/M03 A3007 RMK A01 T00781025  RH  048%=      5-min Rain = 0
KCA1 160117Z 17004KT 08/M02 A3007 RMK A01 T00771024  RH  048%=      5-min Rain = 0
KCA1 160118Z 17004KT 08/M03 A3007 RMK A01 T00771025  RH  049%=      5-min Rain = 0
KCA1 160119Z 16003KT 08/M02 A3007 RMK A01 T00771024  RH  049%=      5-min Rain = 0
KCA1 160120Z 17003KT 08/M02 A3006 RMK A01 T00771024  RH  049%=      5-min Rain = 0
KCA1 160121Z 16003KT 08/M02 A3006 RMK A01 T00771024  RH  049%=      5-min Rain = 0
KCA1 160122Z 17003KT 08/M02 A3006 RMK A01 T00771024  RH  049%=      5-min Rain = 0
KCA1 160123Z 16003KT 08/M02 A3006 RMK A01 T00771023  RH  049%=      5-min Rain = 0
KCA1 160124Z 16003KT 08/M02 A3006 RMK A01 T00781023  RH  049%=      5-min Rain = 0
KCA1 160125Z 15003KT 08/M02 A3006 RMK A01 T00781023  RH  049%=      5-min Rain = 0
KCA1 160126Z 14002KT 08/M02 A3006 RMK A01 T00781023  RH  049%=      5-min Rain = 0
KCA1 160127Z 15003KT 08/M02 A3006 RMK A01 T00781023  RH  049%=      5-min Rain = 0
KCA1 160128Z 16003KT 08/M02 A3006 RMK A01 T00781023  RH  049%=      5-min Rain = 0
KCA1 160129Z 16004KT 08/M02 A3006 RMK A01 T00771022  RH  049%=      5-min Rain = 0
KCA1 160130Z 16004KT 08/M02 A3006 RMK A01 T00761022  RH  050%=      5-min Rain = 0
KCA1 160131Z 16004KT 07/M02 A3006 RMK A01 T00741021  RH  051%=      5-min Rain = 0
KCA1 160132Z 16005KT 07/M02 A3006 RMK A01 T00711021  RH  052%=      5-min Rain = 0
KCA1 160133Z 16005KT 07/M02 A3006 RMK A01 T00701019  RH  053%=      5-min Rain = 0
KCA1 160134Z 18006KT 07/M02 A3006 RMK A01 T00681019  RH  054%=      5-min Rain = 0
KCA1 160135Z 16004KT 07/M02 A3006 RMK A01 T00671019  RH  054%=      5-min Rain = 0
KCA1 160136Z 16005KT 07/M02 A3006 RMK A01 T00661018  RH  055%=      5-min Rain = 0
KCA1 160137Z 16005KT 07/M02 A3006 RMK A01 T00651018  RH  055%=      5-min Rain = 0
KCA1 160138Z 17005KT 06/M02 A3007 RMK A01 T00641018  RH  056%=      5-min Rain = 0
KCA1 160139Z 16005KT 06/M02 A3007 RMK A01 T00621018  RH  056%=      5-min Rain = 0
KCA1 160140Z 17006KT 06/M02 A3007 RMK A01 T00621018  RH  056%=      5-min Rain = 0
KCA1 160141Z 17006KT 06/M02 A3007 RMK A01 T00621018  RH  057%=      5-min Rain = 0
KCA1 160142Z 18006KT 06/M02 A3007 RMK A01 T00621017  RH  057%=      5-min Rain = 0
KCA1 160143Z 18005KT 06/M02 A3007 RMK A01 T00621016  RH  057%=      5-min Rain = 0
KCA1 160144Z 18005KT 06/M02 A3007 RMK A01 T00621016  RH  057%=      5-min Rain = 0
KCA1 160145Z 18004KT 06/M02 A3007 RMK A01 T00621016  RH  057%=      5-min Rain = 0
KCA1 160146Z 17004KT 06/M02 A3007 RMK A01 T00621017  RH  057%=      5-min Rain = 0
KCA1 160147Z 17004KT 06/M02 A3007 RMK A01 T00621017  RH  057%=      5-min Rain = 0
KCA1 160148Z 16003KT 06/M02 A3007 RMK A01 T00611017  RH  057%=      5-min Rain = 0
KCA1 160149Z 16004KT 06/M02 A3007 RMK A01 T00601018  RH  057%=      5-min Rain = 0
KCA1 160150Z 17004KT 06/M02 A3007 RMK A01 T00601017  RH  058%=      5-min Rain = 0
KCA1 160151Z 16004KT 06/M02 A3007 RMK A01 T00591017  RH  058%=      5-min Rain = 0
KCA1 160152Z 16003KT 06/M02 A3007 RMK A01 T00591017  RH  058%=      5-min Rain = 0
KCA1 160153Z 16003KT 06/M02 A3007 RMK A01 T00591018  RH  058%=      5-min Rain = 0
KCA1 160154Z 17004KT 06/M02 A3007 RMK A01 T00591018  RH  058%=      5-min Rain = 0
KCA1 160155Z 16004KT 06/M02 A3007 RMK A01 T00591018  RH  058%=      5-min Rain = 0
KCA1 160156Z 16004KT 06/M02 A3007 RMK A01 T00591018  RH  058%=      5-min Rain = 0
KCA1 160157Z 16004KT 06/M02 A3007 RMK A01 T00581017  RH  058%=      5-min Rain = 0
KCA1 160158Z 16005KT 06/M02 A3007 RMK A01 T00581017  RH  059%=      5-min Rain = 0
KCA1 160159Z 17005KT 06/M02 A3007 RMK A01 T00571016  RH  059%=      5-min Rain = 0
KCA1 160200Z 16005KT 06/M02 A3007 RMK A01 T00571015  RH  060%=      5-min Rain = 0
KCA1 160201Z 16005KT 06/M02 A3007 RMK A01 T00571015  RH  060%=      5-min Rain = 0
KCA1 160202Z 17005KT 06/M01 A3007 RMK A01 T00581014  RH  060%=      5-min Rain = 0
KCA1 160203Z 16005KT 06/M01 A3007 RMK A01 T00591014  RH  060%=      5-min Rain = 0
KCA1 160204Z 16004KT 06/M01 A3007 RMK A01 T00591014  RH  059%=      5-min Rain = 0
KCA1 160205Z 17005KT 06/M02 A3007 RMK A01 T00591015  RH  059%=      5-min Rain = 0
KCA1 160206Z 16005KT 06/M02 A3007 RMK A01 T00591015  RH  059%=      5-min Rain = 0
KCA1 160207Z 16005KT 06/M02 A3007 RMK A01 T00581015  RH  060%=      5-min Rain = 0
KCA1 160208Z 16005KT 06/M02 A3007 RMK A01 T00571015  RH  060%=      5-min Rain = 0
KCA1 160209Z 16007KT 06/M02 A3007 RMK A01 T00561015  RH  060%=      5-min Rain = 0
KCA1 160210Z 16007KT 06/M01 A3006 RMK A01 T00551014  RH  061%=      5-min Rain = 0
KCA1 160211Z 16007KT 06/M01 A3006 RMK A01 T00561013  RH  061%=      5-min Rain = 0
KCA1 160212Z 16006KT 06/M01 A3006 RMK A01 T00561013  RH  061%=      5-min Rain = 0
KCA1 160213Z 16006KT 06/M01 A3006 RMK A01 T00571013  RH  061%=      5-min Rain = 0
KCA1 160214Z 16006KT 06/M01 A3006 RMK A01 T00571013  RH  061%=      5-min Rain = 0
KCA1 160215Z 16005KT 06/M01 A3006 RMK A01 T00571013  RH  060%=      5-min Rain = 0
KCA1 160216Z 17005KT 06/M01 A3006 RMK A01 T00571013  RH  060%=      5-min Rain = 0
KCA1 160217Z 17005KT 06/M01 A3006 RMK A01 T00571013  RH  060%=      5-min Rain = 0
KCA1 160218Z 17006KT 06/M01 A3006 RMK A01 T00571014  RH  060%=      5-min Rain = 0
KCA1 160219Z 17005KT 06/M01 A3006 RMK A01 T00581014  RH  060%=      5-min Rain = 0
KCA1 160220Z 16005KT 06/M01 A3006 RMK A01 T00581013  RH  060%=      5-min Rain = 0
KCA1 160221Z 16006KT 06/M01 A3006 RMK A01 T00591013  RH  060%=      5-min Rain = 0
KCA1 160222Z 17006KT 06/M01 A3006 RMK A01 T00581014  RH  060%=      5-min Rain = 0
KCA1 160223Z 18006KT 06/M01 A3006 RMK A01 T00581014  RH  060%=      5-min Rain = 0
KCA1 160224Z 18007KT 06/M01 A3006 RMK A01 T00581014  RH  060%=      5-min Rain = 0
KCA1 160225Z 17006KT 06/M01 A3006 RMK A01 T00581014  RH  060%=      5-min Rain = 0
KCA1 160226Z 17006KT 06/M01 A3006 RMK A01 T00581014  RH  060%=      5-min Rain = 0
KCA1 160227Z 17006KT 06/M01 A3006 RMK A01 T00591013  RH  060%=      5-min Rain = 0
KCA1 160228Z 17007KT 06/M01 A3006 RMK A01 T00581014  RH  060%=      5-min Rain = 0
KCA1 160229Z 17007KT 06/M01 A3006 RMK A01 T00581013  RH  060%=      5-min Rain = 0
KCA1 160230Z 17006KT 06/M01 A3006 RMK A01 T00581014  RH  060%=      5-min Rain = 0
KCA1 160231Z 17006KT 06/M01 A3006 RMK A01 T00571014  RH  060%=      5-min Rain = 0
KCA1 160232Z 17006KT 06/M01 A3006 RMK A01 T00551014  RH  061%=      5-min Rain = 0
KCA1 160233Z 18006KT 06/M01 A3006 RMK A01 T00551014  RH  061%=      5-min Rain = 0
KCA1 160234Z 17005KT 05/M01 A3006 RMK A01 T00541014  RH  062%=      5-min Rain = 0
KCA1 160235Z 17006KT 05/M01 A3006 RMK A01 T00531014  RH  062%=      5-min Rain = 0
KCA1 160236Z 17006KT 05/M01 A3006 RMK A01 T00531014  RH  062%=      5-min Rain = 0
KCA1 160237Z 17005KT 05/M01 A3006 RMK A01 T00531014  RH  062%=      5-min Rain = 0
KCA1 160238Z 17005KT 05/M01 A3006 RMK A01 T00531014  RH  062%=      5-min Rain = 0
KCA1 160239Z 17005KT 05/M01 A3006 RMK A01 T00521014  RH  062%=      5-min Rain = 0
KCA1 160240Z 17005KT 05/M01 A3006 RMK A01 T00511014  RH  063%=      5-min Rain = 0
KCA1 160241Z 16005KT 05/M01 A3006 RMK A01 T00501014  RH  063%=      5-min Rain = 0
KCA1 160242Z 17005KT 05/M01 A3006 RMK A01 T00501014  RH  063%=      5-min Rain = 0
KCA1 160243Z 18004KT 05/M01 A3006 RMK A01 T00491014  RH  064%=      5-min Rain = 0
KCA1 160244Z 17004KT 05/M01 A3006 RMK A01 T00491014  RH  064%=      5-min Rain = 0
KCA1 160245Z 17005KT 05/M01 A3006 RMK A01 T00491014  RH  064%=      5-min Rain = 0
KCA1 160246Z 17004KT 05/M01 A3006 RMK A01 T00491014  RH  063%=      5-min Rain = 0
KCA1 160247Z 17004KT 05/M01 A3006 RMK A01 T00501014  RH  063%=      5-min Rain = 0
KCA1 160248Z 16004KT 05/M02 A3006 RMK A01 T00491015  RH  063%=      5-min Rain = 0
KCA1 160249Z 17004KT 05/M02 A3006 RMK A01 T00481015  RH  064%=      5-min Rain = 0
KCA1 160250Z 17004KT 05/M02 A3006 RMK A01 T00471016  RH  064%=      5-min Rain = 0
KCA1 160251Z 17004KT 05/M02 A3006 RMK A01 T00461016  RH  064%=      5-min Rain = 0
KCA1 160252Z 17003KT 05/M02 A3006 RMK A01 T00451015  RH  065%=      5-min Rain = 0
KCA1 160253Z 17004KT 04/M02 A3006 RMK A01 T00441015  RH  065%=      5-min Rain = 0
KCA1 160254Z 16003KT 04/M02 A3006 RMK A01 T00441015  RH  066%=      5-min Rain = 0
KCA1 160255Z 18004KT 04/M02 A3006 RMK A01 T00441015  RH  065%=      5-min Rain = 0
KCA1 160256Z 17005KT 04/M02 A3006 RMK A01 T00441015  RH  065%=      5-min Rain = 0
KCA1 160257Z 17005KT 05/M01 A3006 RMK A01 T00451014  RH  065%=      5-min Rain = 0
KCA1 160258Z 17005KT 05/M01 A3006 RMK A01 T00451014  RH  065%=      5-min Rain = 0
KCA1 160259Z 17005KT 05/M02 A3006 RMK A01 T00451015  RH  065%=      5-min Rain = 0
KCA1 160300Z 17005KT 04/M02 A3006 RMK A01 T00441015  RH  066%=      5-min Rain = 0
KCA1 160301Z 18007KT 04/M01 A3006 RMK A01 T00441014  RH  066%=      5-min Rain = 0
KCA1 160302Z 18006KT 04/M01 A3006 RMK A01 T00441013  RH  066%=      5-min Rain = 0
KCA1 160303Z 18007KT 04/M01 A3006 RMK A01 T00441013  RH  067%=      5-min Rain = 0
KCA1 160304Z 18006KT 05/M01 A3006 RMK A01 T00451013  RH  066%=      5-min Rain = 0
KCA1 160305Z 18006KT 05/M01 A3006 RMK A01 T00451012  RH  066%=      5-min Rain = 0
KCA1 160306Z 18005KT 05/M01 A3006 RMK A01 T00451012  RH  066%=      5-min Rain = 0
KCA1 160307Z 18005KT 05/M01 A3006 RMK A01 T00451012  RH  066%=      5-min Rain = 0
KCA1 160308Z 17004KT 05/M01 A3006 RMK A01 T00451012  RH  066%=      5-min Rain = 0
KCA1 160309Z 17005KT 04/M01 A3006 RMK A01 T00441013  RH  066%=      5-min Rain = 0
KCA1 160310Z 17004KT 04/M01 A3006 RMK A01 T00431013  RH  067%=      5-min Rain = 0
KCA1 160311Z 17004KT 04/M01 A3006 RMK A01 T00431013  RH  067%=      5-min Rain = 0
KCA1 160312Z 17004KT 04/M01 A3006 RMK A01 T00441013  RH  066%=      5-min Rain = 0
KCA1 160313Z 17004KT 04/M01 A3006 RMK A01 T00431014  RH  066%=      5-min Rain = 0
KCA1 160314Z 17004KT 04/M01 A3006 RMK A01 T00431014  RH  067%=      5-min Rain = 0
KCA1 160315Z 17004KT 04/M01 A3006 RMK A01 T00431014  RH  067%=      5-min Rain = 0
KCA1 160316Z 18004KT 04/M01 A3006 RMK A01 T00431014  RH  066%=      5-min Rain = 0
KCA1 160317Z 18004KT 04/M01 A3006 RMK A01 T00431014  RH  066%=      5-min Rain = 0
KCA1 160318Z 18004KT 04/M01 A3006 RMK A01 T00441013  RH  066%=      5-min Rain = 0
KCA1 160319Z 18004KT 04/M01 A3006 RMK A01 T00441013  RH  066%=      5-min Rain = 0
KCA1 160320Z 18003KT 04/M01 A3006 RMK A01 T00441013  RH  066%=      5-min Rain = 0
KCA1 160321Z 18003KT 04/M01 A3006 RMK A01 T00441013  RH  066%=      5-min Rain = 0
KCA1 160322Z 19003KT 04/M01 A3006 RMK A01 T00441014  RH  066%=      5-min Rain = 0
KCA1 160323Z 20003KT 04/M01 A3006 RMK A01 T00441014  RH  066%=      5-min Rain = 0
KCA1 160324Z 19002KT 04/M01 A3006 RMK A01 T00441013  RH  066%=      5-min Rain = 0
KCA1 160325Z 18002KT 04/M01 A3006 RMK A01 T00441014  RH  066%=      5-min Rain = 0
KCA1 160326Z 18002KT 04/M01 A3006 RMK A01 T00441014  RH  066%=      5-min Rain = 0
KCA1 160327Z 19003KT 04/M01 A3006 RMK A01 T00431013  RH  067%=      5-min Rain = 0
KCA1 160328Z 18002KT 04/M01 A3006 RMK A01 T00431014  RH  066%=      5-min Rain = 0
KCA1 160329Z 18002KT 04/M01 A3006 RMK A01 T00441014  RH  066%=      5-min Rain = 0
KCA1 160330Z 18002KT 04/M01 A3006 RMK A01 T00441014  RH  066%=      5-min Rain = 0
KCA1 160331Z 18003KT 04/M01 A3006 RMK A01 T00441014  RH  066%=      5-min Rain = 0
KCA1 160332Z 18003KT 04/M01 A3006 RMK A01 T00441014  RH  066%=      5-min Rain = 0
KCA1 160333Z 17003KT 05/M01 A3006 RMK A01 T00451014  RH  066%=      5-min Rain = 0
KCA1 160334Z 16002KT 04/M01 A3006 RMK A01 T00441014  RH  066%=      5-min Rain = 0
KCA1 160335Z 16002KT 04/M01 A3006 RMK A01 T00441014  RH  066%=      5-min Rain = 0
KCA1 160336Z 17003KT 04/M01 A3006 RMK A01 T00431014  RH  066%=      5-min Rain = 0
KCA1 160337Z 17003KT 04/M01 A3006 RMK A01 T00431014  RH  066%=      5-min Rain = 0
KCA1 160338Z 16003KT 04/M01 A3006 RMK A01 T00431014  RH  066%=      5-min Rain = 0
KCA1 160339Z 17004KT 04/M02 A3006 RMK A01 T00421015  RH  066%=      5-min Rain = 0
KCA1 160340Z 17004KT 04/M02 A3006 RMK A01 T00401015  RH  067%=      5-min Rain = 0
KCA1 160341Z 17003KT 04/M02 A3006 RMK A01 T00391016  RH  068%=      5-min Rain = 0
KCA1 160342Z 17004KT 04/M02 A3006 RMK A01 T00381016  RH  068%=      5-min Rain = 0
KCA1 160343Z 18003KT 04/M02 A3006 RMK A01 T00371015  RH  069%=      5-min Rain = 0
KCA1 160344Z 18003KT 04/M02 A3006 RMK A01 T00361015  RH  069%=      5-min Rain = 0
KCA1 160345Z 18004KT 04/M02 A3006 RMK A01 T00361015  RH  069%=      5-min Rain = 0
KCA1 160346Z 19004KT 04/M02 A3006 RMK A01 T00361015  RH  070%=      5-min Rain = 0
KCA1 160347Z 20003KT 04/M02 A3006 RMK A01 T00361015  RH  070%=      5-min Rain = 0
KCA1 160348Z 20002KT 04/M02 A3006 RMK A01 T00371015  RH  069%=      5-min Rain = 0
KCA1 160349Z 20003KT 04/M01 A3006 RMK A01 T00371014  RH  069%=      5-min Rain = 0
KCA1 160350Z 20004KT 04/M02 A3006 RMK A01 T00381015  RH  068%=      5-min Rain = 0
KCA1 160351Z 19003KT 04/M02 A3006 RMK A01 T00381015  RH  068%=      5-min Rain = 0
KCA1 160352Z 18004KT 04/M02 A3006 RMK A01 T00381015  RH  068%=      5-min Rain = 0
KCA1 160353Z 20003KT 04/M02 A3006 RMK A01 T00371015  RH  069%=      5-min Rain = 0
KCA1 160354Z 19002KT 04/M02 A3006 RMK A01 T00371015  RH  069%=      5-min Rain = 0
KCA1 160355Z 19002KT 04/M02 A3006 RMK A01 T00371016  RH  069%=      5-min Rain = 0
KCA1 160356Z 18002KT 04/M02 A3006 RMK A01 T00361015  RH  069%=      5-min Rain = 0
KCA1 160357Z 18002KT 04/M02 A3006 RMK A01 T00361015  RH  069%=      5-min Rain = 0
KCA1 160358Z 19002KT 04/M02 A3006 RMK A01 T00361015  RH  069%=      5-min Rain = 0
KCA1 160359Z 20003KT 04/M02 A3006 RMK A01 T00361015  RH  069%=      5-min Rain = 0
KCA1 160400Z 19003KT 04/M02 A3006 RMK A01 T00361015  RH  069%=      5-min Rain = 0
KCA1 160401Z 20003KT 04/M02 A3006 RMK A01 T00371015  RH  069%=      5-min Rain = 0
KCA1 160402Z 20003KT 04/M02 A3006 RMK A01 T00371015  RH  069%=      5-min Rain = 0
KCA1 160403Z 19004KT 04/M02 A3006 RMK A01 T00381015  RH  068%=      5-min Rain = 0
KCA1 160404Z 19004KT 04/M02 A3006 RMK A01 T00391015  RH  068%=      5-min Rain = 0
KCA1 160405Z 19004KT 04/M02 A3006 RMK A01 T00411015  RH  067%=      5-min Rain = 0
KCA1 160406Z 18003KT 04/M02 A3006 RMK A01 T00421015  RH  067%=      5-min Rain = 0
KCA1 160407Z 18004KT 04/M02 A3006 RMK A01 T00421015  RH  066%=      5-min Rain = 0
KCA1 160408Z 19004KT 04/M02 A3006 RMK A01 T00421015  RH  066%=      5-min Rain = 0
KCA1 160409Z 19004KT 04/M02 A3006 RMK A01 T00411016  RH  066%=      5-min Rain = 0
KCA1 160410Z 19004KT 04/M02 A3006 RMK A01 T00411015  RH  067%=      5-min Rain = 0
KCA1 160411Z 19005KT 04/M02 A3006 RMK A01 T00421015  RH  067%=      5-min Rain = 0
KCA1 160412Z 18005KT 04/M01 A3006 RMK A01 T00431014  RH  066%=      5-min Rain = 0
KCA1 160413Z 19005KT 04/M02 A3006 RMK A01 T00431015  RH  066%=      5-min Rain = 0
KCA1 160414Z 19005KT 04/M02 A3006 RMK A01 T00421015  RH  066%=      5-min Rain = 0
KCA1 160415Z 19005KT 04/M02 A3006 RMK A01 T00421015  RH  067%=      5-min Rain = 0
KCA1 160416Z 18005KT 04/M02 A3006 RMK A01 T00411015  RH  067%=      5-min Rain = 0
KCA1 160417Z 19005KT 04/M02 A3006 RMK A01 T00411015  RH  067%=      5-min Rain = 0
KCA1 160418Z 19005KT 04/M02 A3006 RMK A01 T00401015  RH  067%=      5-min Rain = 0
KCA1 160419Z 19005KT 04/M02 A3006 RMK A01 T00401015  RH  068%=      5-min Rain = 0
KCA1 160420Z 18005KT 04/M01 A3006 RMK A01 T00401014  RH  068%=      5-min Rain = 0
KCA1 160421Z 19005KT 04/M01 A3006 RMK A01 T00391014  RH  068%=      5-min Rain = 0
KCA1 160422Z 18004KT 04/M01 A3005 RMK A01 T00391014  RH  068%=      5-min Rain = 0
KCA1 160423Z 18005KT 04/M01 A3005 RMK A01 T00391014  RH  068%=      5-min Rain = 0
KCA1 160424Z 19006KT 04/M01 A3005 RMK A01 T00381014  RH  069%=      5-min Rain = 0
KCA1 160425Z 19004KT 04/M01 A3005 RMK A01 T00381014  RH  069%=      5-min Rain = 0
KCA1 160426Z 19004KT 04/M01 A3005 RMK A01 T00381014  RH  069%=      5-min Rain = 0
KCA1 160427Z 19004KT 04/M01 A3005 RMK A01 T00371014  RH  069%=      5-min Rain = 0
KCA1 160428Z 18004KT 04/M01 A3005 RMK A01 T00361014  RH  070%=      5-min Rain = 0
KCA1 160429Z 19003KT 04/M02 A3005 RMK A01 T00351015  RH  070%=      5-min Rain = 0
KCA1 160430Z 20003KT 03/M02 A3005 RMK A01 T00341015  RH  070%=      5-min Rain = 0
KCA1 160431Z 20004KT 04/M01 A3005 RMK A01 T00351014  RH  070%=      5-min Rain = 0
KCA1 160432Z 19003KT 04/M01 A3005 RMK A01 T00381013  RH  069%=      5-min Rain = 0
KCA1 160433Z 19004KT 04/M01 A3005 RMK A01 T00411013  RH  068%=      5-min Rain = 0
KCA1 160434Z 20003KT 04/M01 A3005 RMK A01 T00431013  RH  067%=      5-min Rain = 0
KCA1 160435Z 19003KT 04/M01 A3005 RMK A01 T00431014  RH  066%=      5-min Rain = 0
KCA1 160436Z 19004KT 04/M01 A3005 RMK A01 T00441014  RH  066%=      5-min Rain = 0
KCA1 160437Z 19003KT 04/M02 A3005 RMK A01 T00441015  RH  066%=      5-min Rain = 0
KCA1 160438Z 19003KT 05/M01 A3005 RMK A01 T00451014  RH  065%=      5-min Rain = 0
KCA1 160439Z 19003KT 05/M02 A3005 RMK A01 T00451015  RH  065%=      5-min Rain = 0
KCA1 160440Z 21004KT 05/M02 A3005 RMK A01 T00451015  RH  065%=      5-min Rain = 0
KCA1 160441Z 20003KT 05/M02 A3005 RMK A01 T00451015  RH  065%=      5-min Rain = 0
KCA1 160442Z 20004KT 05/M02 A3005 RMK A01 T00451016  RH  065%=      5-min Rain = 0
KCA1 160443Z 20003KT 04/M02 A3005 RMK A01 T00431016  RH  065%=      5-min Rain = 0
KCA1 160444Z 20004KT 04/M02 A3005 RMK A01 T00431016  RH  066%=      5-min Rain = 0
KCA1 160445Z 20004KT 04/M02 A3005 RMK A01 T00421016  RH  066%=      5-min Rain = 0
KCA1 160446Z 20003KT 04/M02 A3005 RMK A01 T00411017  RH  066%=      5-min Rain = 0
KCA1 160447Z 20002KT 04/M02 A3005 RMK A01 T00401018  RH  066%=      5-min Rain = 0
KCA1 160448Z 20004KT 04/M02 A3005 RMK A01 T00391018  RH  066%=      5-min Rain = 0
KCA1 160449Z 20003KT 04/M02 A3005 RMK A01 T00401017  RH  066%=      5-min Rain = 0
KCA1 160450Z 19002KT 04/M02 A3005 RMK A01 T00391018  RH  066%=      5-min Rain = 0
KCA1 160451Z 19003KT 04/M02 A3005 RMK A01 T00391018  RH  066%=      5-min Rain = 0
KCA1 160452Z 20003KT 04/M02 A3005 RMK A01 T00391018  RH  066%=      5-min Rain = 0
KCA1 160453Z 21003KT 04/M02 A3005 RMK A01 T00381019  RH  066%=      5-min Rain = 0
KCA1 160454Z 21004KT 04/M02 A3005 RMK A01 T00381019  RH  067%=      5-min Rain = 0
KCA1 160455Z 20004KT 04/M02 A3005 RMK A01 T00381020  RH  066%=      5-min Rain = 0
KCA1 160456Z 19003KT 04/M02 A3005 RMK A01 T00401019  RH  065%=      5-min Rain = 0
KCA1 160457Z 20004KT 04/M02 A3005 RMK A01 T00421019  RH  064%=      5-min Rain = 0
KCA1 160458Z 20003KT 05/M02 A3005 RMK A01 T00451019  RH  063%=      5-min Rain = 0
KCA1 160459Z 21002KT 05/M02 A3005 RMK A01 T00461019  RH  063%=      5-min Rain = 0
KCA1 160500Z 19003KT 05/M02 A3005 RMK A01 T00461019  RH  063%=      5-min Rain = 0
KCA1 160501Z 22003KT 05/M02 A3005 RMK A01 T00461019  RH  063%=      5-min Rain = 0
KCA1 160502Z 22004KT 05/M02 A3005 RMK A01 T00461021  RH  062%=      5-min Rain = 0
KCA1 160503Z 22002KT 05/M02 A3005 RMK A01 T00481020  RH  061%=      5-min Rain = 0
KCA1 160504Z 24002KT 05/M02 A3005 RMK A01 T00481020  RH  061%=      5-min Rain = 0
KCA1 160505Z 25002KT 05/M02 A3004 RMK A01 T00481020  RH  061%=      5-min Rain = 0
KCA1 160506Z 25003KT 05/M02 A3004 RMK A01 T00471020  RH  062%=      5-min Rain = 0
KCA1 160507Z 25002KT 05/M02 A3004 RMK A01 T00471020  RH  062%=      5-min Rain = 0
KCA1 160508Z 24002KT 05/M02 A3004 RMK A01 T00471019  RH  062%=      5-min Rain = 0
KCA1 160509Z 24003KT 05/M02 A3004 RMK A01 T00471019  RH  062%=      5-min Rain = 0
KCA1 160510Z 23003KT 05/M02 A3004 RMK A01 T00461020  RH  062%=      5-min Rain = 0
KCA1 160511Z 24004KT 05/M02 A3004 RMK A01 T00451020  RH  062%=      5-min Rain = 0
KCA1 160512Z 24003KT 04/M02 A3004 RMK A01 T00441020  RH  063%=      5-min Rain = 0
KCA1 160513Z 25002KT 04/M02 A3004 RMK A01 T00441020  RH  063%=      5-min Rain = 0
KCA1 160514Z 25003KT 04/M02 A3004 RMK A01 T00441020  RH  063%=      5-min Rain = 0
KCA1 160515Z 23003KT 04/M02 A3004 RMK A01 T00421020  RH  064%=      5-min Rain = 0
KCA1 160516Z 22003KT 04/M02 A3004 RMK A01 T00421022  RH  063%=      5-min Rain = 0
KCA1 160517Z 26002KT 04/M02 A3004 RMK A01 T00421022  RH  063%=      5-min Rain = 0
KCA1 160518Z 26002KT 04/M02 A3004 RMK A01 T00411021  RH  064%=      5-min Rain = 0
KCA1 160519Z 26002KT 04/M02 A3004 RMK A01 T00401021  RH  064%=      5-min Rain = 0
KCA1 160520Z 25003KT 04/M02 A3004 RMK A01 T00391022  RH  065%=      5-min Rain = 0
KCA1 160521Z 25003KT 04/M02 A3004 RMK A01 T00391022  RH  065%=      5-min Rain = 0
KCA1 160522Z 25003KT 04/M02 A3004 RMK A01 T00391022  RH  064%=      5-min Rain = 0
KCA1 160523Z 24004KT 04/M02 A3004 RMK A01 T00391022  RH  064%=      5-min Rain = 0
KCA1 160524Z 23003KT 04/M02 A3004 RMK A01 T00401023  RH  064%=      5-min Rain = 0
KCA1 160525Z 25002KT 04/M02 A3004 RMK A01 T00401023  RH  063%=      5-min Rain = 0
KCA1 160526Z 25003KT 04/M02 A3004 RMK A01 T00401023  RH  063%=      5-min Rain = 0
KCA1 160527Z 25002KT 04/M02 A3004 RMK A01 T00401023  RH  063%=      5-min Rain = 0
KCA1 160528Z 25003KT 04/M02 A3004 RMK A01 T00391024  RH  063%=      5-min Rain = 0
KCA1 160529Z 24003KT 04/M02 A3004 RMK A01 T00391024  RH  064%=      5-min Rain = 0
KCA1 160530Z 24003KT 04/M02 A3004 RMK A01 T00391024  RH  064%=      5-min Rain = 0
KCA1 160531Z 24002KT 04/M03 A3004 RMK A01 T00381025  RH  063%=      5-min Rain = 0
KCA1 160532Z 24003KT 04/M03 A3004 RMK A01 T00381025  RH  064%=      5-min Rain = 0
KCA1 160533Z 24003KT 04/M03 A3004 RMK A01 T00371025  RH  064%=      5-min Rain = 0
KCA1 160534Z 23003KT 04/M03 A3004 RMK A01 T00361026  RH  064%=      5-min Rain = 0
KCA1 160535Z 23005KT 04/M03 A3004 RMK A01 T00351026  RH  065%=      5-min Rain = 0
KCA1 160536Z 23004KT 04/M03 A3004 RMK A01 T00351026  RH  064%=      5-min Rain = 0
KCA1 160537Z 23004KT 04/M03 A3004 RMK A01 T00361025  RH  064%=      5-min Rain = 0
KCA1 160538Z 25003KT 04/M03 A3004 RMK A01 T00371025  RH  064%=      5-min Rain = 0
KCA1 160539Z 24004KT 04/M03 A3004 RMK A01 T00361025  RH  064%=      5-min Rain = 0
KCA1 160540Z 24004KT 04/M03 A3004 RMK A01 T00361025  RH  064%=      5-min Rain = 0
KCA1 160541Z 24004KT 04/M03 A3004 RMK A01 T00351025  RH  064%=      5-min Rain = 0
KCA1 160542Z 24004KT 04/M03 A3004 RMK A01 T00351025  RH  065%=      5-min Rain = 0
KCA1 160543Z 25002KT 03/M03 A3004 RMK A01 T00341025  RH  065%=      5-min Rain = 0
KCA1 160544Z 23002KT 03/M03 A3004 RMK A01 T00331026  RH  065%=      5-min Rain = 0
KCA1 160545Z 26002KT 03/M03 A3004 RMK A01 T00331026  RH  065%=      5-min Rain = 0
KCA1 160546Z 28002KT 03/M03 A3004 RMK A01 T00331025  RH  066%=      5-min Rain = 0
KCA1 160547Z 28002KT 03/M03 A3004 RMK A01 T00321026  RH  066%=      5-min Rain = 0
KCA1 160548Z 28002KT 03/M03 A3004 RMK A01 T00301027  RH  066%=      5-min Rain = 0
KCA1 160549Z 26002KT 03/M03 A3004 RMK A01 T00281027  RH  067%=      5-min Rain = 0
KCA1 160550Z 28002KT 03/M03 A3004 RMK A01 T00271027  RH  068%=      5-min Rain = 0
KCA1 160551Z 28002KT 03/M03 A3004 RMK A01 T00251027  RH  068%=      5-min Rain = 0
KCA1 160552Z 27002KT 02/M03 A3004 RMK A01 T00241028  RH  069%=      5-min Rain = 0
KCA1 160553Z 26002KT 02/M03 A3004 RMK A01 T00231028  RH  069%=      5-min Rain = 0
KCA1 160554Z 28002KT 02/M03 A3004 RMK A01 T00221028  RH  070%=      5-min Rain = 0
KCA1 160555Z 26002KT 02/M03 A3004 RMK A01 T00211028  RH  070%=      5-min Rain = 0
KCA1 160556Z 27003KT 02/M03 A3004 RMK A01 T00211027  RH  070%=      5-min Rain = 0
KCA1 160557Z 25003KT 02/M03 A3004 RMK A01 T00201027  RH  071%=      5-min Rain = 0
KCA1 160558Z 25003KT 02/M03 A3004 RMK A01 T00201027  RH  071%=      5-min Rain = 0
KCA1 160559Z 25004KT 02/M03 A3004 RMK A01 T00221026  RH  071%=      5-min Rain = 0

Page generated in 0.0246 seconds.